Terminal Aerodrome Forecast
Issued by NWS

Home | Current Version | Previous Version | Text Only | Print | Product List | Glossary On
Versions: 1 2 3 4 5 6 7 8 9 10 11 12 13 14 15 16 17 18 19 20 21 22 23 24 25
712
FTUS43 KICT 260520
TAFCNU
TAF
KCNU 260520Z 2606/2706 30004KT P6SM OVC012
     FM260800 VRB03KT 5SM BR BKN008
     FM261600 20004KT P6SM SCT020 BKN035
     FM262000 10007KT P6SM SCT130
     FM270000 08008KT P6SM VCTS BKN045CB
     FM270500 07012KT P6SM VCTS OVC015CB=

USA.gov is the U.S. government's official web portal to all federal, state and local government web resources and services.